Brive-Souillac

METAR LFSL TAF LFSL
8 °C
°C
-
°C
9m
Alter
12:09:08
LT
11:09
UTC
0 ft

1.000

2.000

3.000

4.000

5.000

BKN 3.700
VFR
<?= Yii::t('app', 'Wind direction') ?> <?= Yii::t('app', 'of'); ?>
340°
18:02
Sonne unter
66%
Luftfeuchtigkeit
Windscherung
Geschlossen/Schnee
RWY-Sichtweite
RWY Zustand
Vert. Sichtweite
Min. Sichtbarkeit
CAVOK
Trend
Korrektur
Besonderer Bericht
1034 hPa
QNH
METAR LFSL 021100Z AUTO 34007KT 300V360 9999 BKN037 08/02 Q1034 NOSIG
Durchbrochene Wolken
5 kt
5 kt
12:00
VFR
5 kt
13:00
VFR
5 kt
14:00
VFR
5 kt
15:00
VFR
5 kt
16:00
VFR
5 kt
17:00
VFR
5 kt
18:00
VFR
5 kt
10 km+
Sichtweite
3.700 ft
Wolkendecke
7 kt
Wind
metar-taf.com/LFSL

Metar-Taf.com

Visueller Decoder

Wir und Dritte verfolgen dein Internetverhalten auf unserer Website mit Cookies. Wenn du fortfährst, gehen wir davon aus, dass du mit unserer Cookie-Richtlinie einverstanden bist.